PWSweather.com
Personal Weather Stations
Station Observations
KMAMEDFI2
Medfield, MA 02052

Medfield, MA 02052

Lat: 42.1900822, Lon: -71.3296889

Elevation: 138

Station Type: Rainwise WS MK-III

http://www.medfieldweather.com

High Low Average
Temperature 51.6°F10.9°C 41.8°F5.4°C 46.1°F7.8°C
Dew Point 47.7°F8.7°C 38.3°F3.5°C 43.9°F6.6°C
Winds 4.6 mph 7.4 kmh Calm Calm 1.0 mph S1.6 kmh S
Wind Gusts 8.1 mph13.0 kmh -- 2.0 mph3.2 kmh
Humidity 97% 68% 92%
Pressure 30.35 in1027.8 mb 30.21 in1023.0 mb -
Precipitation 0.20 in5.1 mm - -
Hour Temp Dew Point Humidity Winds Wind Gusts Pressure Precip Precip Rate Daily Precip Total
12:00 AM 49.7°F9.8°C 36.8°F2.7°C 61% 2.3 mph SSE3.7 kmh SSE 2.3 mph3.7 kmh 30.31 in1026.4 mb - 0.00 in0.0 mm 0.00 in0.0 mm
12:10 AM 49.6°F9.8°C 37.1°F2.8°C 62% 2.3 mph S3.7 kmh S 2.3 mph3.7 kmh 30.29 in1025.7 mb - 0.00 in0.0 mm 0.00 in0.0 mm
12:20 AM 49.5°F9.7°C 37.8°F3.2°C 64% Calm Calm 2.3 mph3.7 kmh 30.29 in1025.7 mb - 0.00 in0.0 mm 0.00 in0.0 mm
12:30 AM 49.2°F9.6°C 37.6°F3.1°C 64% Calm Calm 1.2 mph1.9 kmh 30.29 in1025.7 mb - 0.00 in0.0 mm 0.00 in0.0 mm
12:40 AM 49.1°F9.5°C 38.2°F3.4°C 66% 2.3 mph S3.7 kmh S 3.5 mph5.6 kmh 30.30 in1026.1 mb - 0.00 in0.0 mm 0.00 in0.0 mm
12:50 AM 48.7°F9.3°C 38.6°F3.7°C 68% 1.2 mph SW1.9 kmh SW 2.3 mph3.7 kmh 30.30 in1026.1 mb - 0.00 in0.0 mm 0.00 in0.0 mm
01:00 AM 48.3°F9.1°C 38.3°F3.5°C 68% 4.6 mph SSW7.4 kmh SSW 5.8 mph9.3 kmh 30.30 in1026.1 mb - 0.00 in0.0 mm 0.00 in0.0 mm
01:10 AM 48.2°F9.0°C 38.9°F3.8°C 70% 3.5 mph SW5.6 kmh SW 3.5 mph5.6 kmh 30.31 in1026.4 mb - 0.00 in0.0 mm 0.00 in0.0 mm
01:20 AM 47.6°F8.7°C 39.7°F4.3°C 74% 2.3 mph SSW3.7 kmh SSW 3.5 mph5.6 kmh 30.30 in1026.1 mb - 0.00 in0.0 mm 0.00 in0.0 mm
01:30 AM 46.8°F8.2°C 40.3°F4.6°C 78% Calm Calm -- 30.29 in1025.7 mb - 0.00 in0.0 mm 0.00 in0.0 mm
01:40 AM 46.2°F7.9°C 40.4°F4.7°C 80% Calm Calm -- 30.29 in1025.7 mb - 0.00 in0.0 mm 0.00 in0.0 mm
01:50 AM 45.7°F7.6°C 41.1°F5.1°C 84% Calm Calm 2.3 mph3.7 kmh 30.28 in1025.4 mb - 0.00 in0.0 mm 0.00 in0.0 mm
02:00 AM 45.1°F7.3°C 41.8°F5.4°C 88% Calm Calm -- 30.28 in1025.4 mb - 0.01 in0.3 mm 0.01 in0.3 mm
02:10 AM 44.4°F6.9°C 42.0°F5.6°C 91% 1.2 mph S1.9 kmh S 2.3 mph3.7 kmh 30.28 in1025.4 mb - 0.01 in0.3 mm 0.01 in0.3 mm
02:20 AM 43.8°F6.6°C 41.7°F5.4°C 92% Calm Calm -- 30.28 in1025.4 mb - 0.02 in0.5 mm 0.02 in0.5 mm
02:30 AM 43.5°F6.4°C 42.5°F5.8°C 96% Calm Calm -- 30.27 in1025.1 mb - 0.02 in0.5 mm 0.02 in0.5 mm
02:40 AM 43.1°F6.2°C 42.0°F5.6°C 96% 2.3 mph SE3.7 kmh SE 1.2 mph1.9 kmh 30.27 in1025.1 mb - 0.02 in0.5 mm 0.02 in0.5 mm
02:50 AM 42.8°F6.0°C 41.8°F5.4°C 96% 1.2 mph SSE1.9 kmh SSE 2.3 mph3.7 kmh 30.27 in1025.1 mb - 0.03 in0.8 mm 0.03 in0.8 mm
03:00 AM 42.5°F5.8°C 41.5°F5.3°C 96% Calm Calm 2.3 mph3.7 kmh 30.26 in1024.7 mb - 0.04 in1.0 mm 0.05 in1.3 mm
03:10 AM 42.3°F5.7°C 41.2°F5.1°C 96% Calm Calm -- 30.24 in1024.0 mb - 0.05 in1.3 mm 0.06 in1.5 mm
03:20 AM 42.1°F5.6°C 41.1°F5.1°C 96% Calm Calm -- 30.24 in1024.0 mb - 0.04 in1.0 mm 0.06 in1.5 mm
03:30 AM 42.2°F5.7°C 41.1°F5.1°C 96% Calm Calm -- 30.24 in1024.0 mb - 0.05 in1.3 mm 0.07 in1.8 mm
03:40 AM 42.2°F5.7°C 41.2°F5.1°C 96% Calm Calm -- 30.24 in1024.0 mb - 0.05 in1.3 mm 0.07 in1.8 mm
03:50 AM 42.2°F5.7°C 41.1°F5.1°C 96% Calm Calm -- 30.23 in1023.7 mb - 0.04 in1.0 mm 0.07 in1.8 mm
04:00 AM 42.2°F5.7°C 41.1°F5.1°C 96% Calm Calm -- 30.23 in1023.7 mb - 0.03 in0.8 mm 0.08 in2.0 mm
04:10 AM 42.4°F5.8°C 41.3°F5.2°C 96% Calm Calm -- 30.23 in1023.7 mb - 0.03 in0.8 mm 0.09 in2.3 mm
04:20 AM 42.4°F5.8°C 41.3°F5.2°C 96% Calm Calm -- 30.22 in1023.4 mb - 0.03 in0.8 mm 0.09 in2.3 mm
04:30 AM 42.4°F5.8°C 41.3°F5.2°C 96% Calm Calm -- 30.21 in1023.0 mb - 0.02 in0.5 mm 0.09 in2.3 mm
04:40 AM 42.4°F5.8°C 41.3°F5.2°C 96% Calm Calm -- 30.21 in1023.0 mb - 0.03 in0.8 mm 0.10 in2.5 mm
04:50 AM 42.4°F5.8°C 41.3°F5.2°C 96% Calm Calm -- 30.21 in1023.0 mb - 0.03 in0.8 mm 0.10 in2.5 mm
05:00 AM 42.5°F5.8°C 41.4°F5.2°C 96% Calm Calm -- 30.21 in1023.0 mb - 0.03 in0.8 mm 0.11 in2.8 mm
05:10 AM 42.5°F5.8°C 41.4°F5.2°C 96% Calm Calm -- 30.21 in1023.0 mb - 0.02 in0.5 mm 0.11 in2.8 mm
05:20 AM 42.4°F5.8°C 41.3°F5.2°C 96% Calm Calm -- 30.22 in1023.4 mb - 0.03 in0.8 mm 0.12 in3.0 mm
05:30 AM 42.1°F5.6°C 41.1°F5.1°C 96% Calm Calm -- 30.22 in1023.4 mb - 0.04 in1.0 mm 0.13 in3.3 mm
05:40 AM 42.2°F5.7°C 41.1°F5.1°C 96% Calm Calm -- 30.22 in1023.4 mb - 0.04 in1.0 mm 0.14 in3.6 mm
05:50 AM 42.1°F5.6°C 41.0°F5.0°C 96% Calm Calm -- 30.22 in1023.4 mb - 0.04 in1.0 mm 0.14 in3.6 mm
06:00 AM 41.9°F5.5°C 40.8°F4.9°C 96% Calm Calm -- 30.22 in1023.4 mb - 0.04 in1.0 mm 0.15 in3.8 mm
06:10 AM 41.9°F5.5°C 40.8°F4.9°C 96% Calm Calm -- 30.22 in1023.4 mb - 0.04 in1.0 mm 0.15 in3.8 mm
06:20 AM 42.0°F5.6°C 40.9°F4.9°C 96% Calm Calm -- 30.22 in1023.4 mb - 0.04 in1.0 mm 0.16 in4.1 mm
06:30 AM 41.9°F5.5°C 40.8°F4.9°C 96% Calm Calm -- 30.22 in1023.4 mb - 0.04 in1.0 mm 0.17 in4.3 mm
06:40 AM 41.8°F5.4°C 40.7°F4.8°C 96% Calm Calm -- 30.22 in1023.4 mb - 0.03 in0.8 mm 0.17 in4.3 mm
06:50 AM 41.8°F5.4°C 40.7°F4.8°C 96% Calm Calm -- 30.23 in1023.7 mb - 0.04 in1.0 mm 0.18 in4.6 mm
07:00 AM 41.9°F5.5°C 40.8°F4.9°C 96% Calm Calm -- 30.22 in1023.4 mb - 0.04 in1.0 mm 0.19 in4.8 mm
07:10 AM 41.9°F5.5°C 40.8°F4.9°C 96% Calm Calm -- 30.22 in1023.4 mb - 0.04 in1.0 mm 0.19 in4.8 mm
07:20 AM 42.2°F5.7°C 41.1°F5.1°C 96% Calm Calm 2.3 mph3.7 kmh 30.22 in1023.4 mb - 0.03 in0.8 mm 0.19 in4.8 mm
07:30 AM 42.5°F5.8°C 41.4°F5.2°C 96% 1.2 mph SE1.9 kmh SE 2.3 mph3.7 kmh 30.21 in1023.0 mb - 0.03 in0.8 mm 0.20 in5.1 mm
07:40 AM 42.6°F5.9°C 41.5°F5.3°C 96% Calm Calm -- 30.21 in1023.0 mb - 0.03 in0.8 mm 0.20 in5.1 mm
07:50 AM 42.9°F6.1°C 41.8°F5.4°C 96% Calm Calm -- 30.21 in1023.0 mb - 0.02 in0.5 mm 0.20 in5.1 mm
08:00 AM 42.9°F6.1°C 41.8°F5.4°C 96% Calm Calm -- 30.21 in1023.0 mb - 0.01 in0.3 mm 0.20 in5.1 mm
08:10 AM 42.9°F6.1°C 41.8°F5.4°C 96% Calm Calm -- 30.21 in1023.0 mb - 0.01 in0.3 mm 0.20 in5.1 mm
08:20 AM 43.1°F6.2°C 42.0°F5.6°C 96% Calm Calm -- 30.21 in1023.0 mb - 0.01 in0.3 mm 0.20 in5.1 mm
08:30 AM 43.3°F6.3°C 42.2°F5.7°C 96% 1.2 mph N1.9 kmh N 2.3 mph3.7 kmh 30.21 in1023.0 mb - 0.00 in0.0 mm 0.20 in5.1 mm
08:40 AM 42.9°F6.1°C 41.8°F5.4°C 96% 1.2 mph S1.9 kmh S 2.3 mph3.7 kmh 30.21 in1023.0 mb - 0.00 in0.0 mm 0.20 in5.1 mm
08:50 AM 42.9°F6.1°C 41.8°F5.4°C 96% Calm Calm -- 30.21 in1023.0 mb - 0.00 in0.0 mm 0.20 in5.1 mm
09:00 AM 42.9°F6.1°C 41.8°F5.4°C 96% Calm Calm 2.3 mph3.7 kmh 30.21 in1023.0 mb - 0.00 in0.0 mm 0.20 in5.1 mm
09:10 AM 43.1°F6.2°C 42.0°F5.6°C 96% Calm Calm -- 30.21 in1023.0 mb - 0.00 in0.0 mm 0.20 in5.1 mm
09:20 AM 43.3°F6.3°C 42.2°F5.7°C 96% Calm Calm 1.2 mph1.9 kmh 30.21 in1023.0 mb - 0.00 in0.0 mm 0.20 in5.1 mm
09:30 AM 43.5°F6.4°C 42.4°F5.8°C 96% Calm Calm -- 30.22 in1023.4 mb - 0.00 in0.0 mm 0.20 in5.1 mm
09:40 AM 43.5°F6.4°C 42.4°F5.8°C 96% 1.2 mph WSW1.9 kmh WSW 2.3 mph3.7 kmh 30.22 in1023.4 mb - 0.00 in0.0 mm 0.20 in5.1 mm
09:50 AM 43.5°F6.4°C 42.4°F5.8°C 96% 2.3 mph WSW3.7 kmh WSW 2.3 mph3.7 kmh 30.22 in1023.4 mb - 0.00 in0.0 mm 0.20 in5.1 mm
10:00 AM 43.9°F6.6°C 42.8°F6.0°C 96% Calm Calm 1.2 mph1.9 kmh 30.21 in1023.0 mb - 0.00 in0.0 mm 0.20 in5.1 mm
10:10 AM 44.4°F6.9°C 43.4°F6.3°C 96% Calm Calm -- 30.21 in1023.0 mb - 0.00 in0.0 mm 0.20 in5.1 mm
10:20 AM 44.7°F7.1°C 43.6°F6.4°C 96% Calm Calm -- 30.22 in1023.4 mb - 0.00 in0.0 mm 0.20 in5.1 mm
10:30 AM 44.9°F7.2°C 43.8°F6.6°C 96% 2.3 mph SW3.7 kmh SW 2.3 mph3.7 kmh 30.22 in1023.4 mb - 0.00 in0.0 mm 0.20 in5.1 mm
10:40 AM 45.1°F7.3°C 44.3°F6.8°C 97% Calm Calm 2.3 mph3.7 kmh 30.22 in1023.4 mb - 0.00 in0.0 mm 0.20 in5.1 mm
10:50 AM 45.0°F7.2°C 44.2°F6.8°C 97% 2.3 mph NW3.7 kmh NW 2.3 mph3.7 kmh 30.23 in1023.7 mb - 0.00 in0.0 mm 0.20 in5.1 mm
11:00 AM 45.1°F7.3°C 44.3°F6.8°C 97% Calm Calm -- 30.22 in1023.4 mb - 0.00 in0.0 mm 0.20 in5.1 mm
11:10 AM 45.6°F7.6°C 44.8°F7.1°C 97% 2.3 mph WSW3.7 kmh WSW 2.3 mph3.7 kmh 30.22 in1023.4 mb - 0.00 in0.0 mm 0.20 in5.1 mm
11:20 AM 46.3°F7.9°C 45.4°F7.4°C 97% 1.2 mph NW1.9 kmh NW 2.3 mph3.7 kmh 30.22 in1023.4 mb - 0.00 in0.0 mm 0.20 in5.1 mm
11:30 AM 46.6°F8.1°C 45.8°F7.7°C 97% Calm Calm 2.3 mph3.7 kmh 30.21 in1023.0 mb - 0.00 in0.0 mm 0.20 in5.1 mm
11:40 AM 47.1°F8.4°C 46.3°F7.9°C 97% 2.3 mph NNW3.7 kmh NNW 3.5 mph5.6 kmh 30.22 in1023.4 mb - 0.00 in0.0 mm 0.20 in5.1 mm
11:50 AM 47.0°F8.3°C 46.2°F7.9°C 97% 2.3 mph NW3.7 kmh NW 2.3 mph3.7 kmh 30.22 in1023.4 mb - 0.00 in0.0 mm 0.20 in5.1 mm
12:00 PM 47.3°F8.5°C 46.5°F8.1°C 97% 1.2 mph NE1.9 kmh NE 2.3 mph3.7 kmh 30.23 in1023.7 mb - 0.00 in0.0 mm 0.20 in5.1 mm
12:10 PM 47.6°F8.7°C 46.8°F8.2°C 97% 2.3 mph NW3.7 kmh NW 2.3 mph3.7 kmh 30.23 in1023.7 mb - 0.00 in0.0 mm 0.20 in5.1 mm
12:20 PM 47.4°F8.6°C 46.6°F8.1°C 97% 1.2 mph NW1.9 kmh NW 2.3 mph3.7 kmh 30.22 in1023.4 mb - 0.00 in0.0 mm 0.20 in5.1 mm
12:30 PM 47.4°F8.6°C 46.4°F8.0°C 96% 3.5 mph N5.6 kmh N 3.5 mph5.6 kmh 30.22 in1023.4 mb - 0.00 in0.0 mm 0.20 in5.1 mm
12:40 PM 47.6°F8.7°C 46.6°F8.1°C 96% 1.2 mph N1.9 kmh N 1.2 mph1.9 kmh 30.23 in1023.7 mb - 0.00 in0.0 mm 0.20 in5.1 mm
12:50 PM 47.6°F8.7°C 46.6°F8.1°C 96% 2.3 mph WSW3.7 kmh WSW 2.3 mph3.7 kmh 30.23 in1023.7 mb - 0.00 in0.0 mm 0.20 in5.1 mm
01:00 PM 47.9°F8.8°C 46.9°F8.3°C 96% 2.3 mph WSW3.7 kmh WSW 2.3 mph3.7 kmh 30.23 in1023.7 mb - 0.00 in0.0 mm 0.20 in5.1 mm
01:10 PM 48.2°F9.0°C 47.2°F8.4°C 96% 1.2 mph N1.9 kmh N 1.2 mph1.9 kmh 30.23 in1023.7 mb - 0.00 in0.0 mm 0.20 in5.1 mm
01:20 PM 48.4°F9.1°C 47.1°F8.4°C 95% Calm Calm -- 30.24 in1024.0 mb - 0.00 in0.0 mm 0.20 in5.1 mm
01:30 PM 48.3°F9.1°C 46.6°F8.1°C 94% 3.5 mph SW5.6 kmh SW 2.3 mph3.7 kmh 30.24 in1024.0 mb - 0.00 in0.0 mm 0.20 in5.1 mm
01:40 PM 48.5°F9.2°C 47.1°F8.4°C 95% 2.3 mph SW3.7 kmh SW 2.3 mph3.7 kmh 30.25 in1024.4 mb - 0.00 in0.0 mm 0.20 in5.1 mm
01:50 PM 48.8°F9.3°C 46.8°F8.2°C 93% 3.5 mph W5.6 kmh W 2.3 mph3.7 kmh 30.25 in1024.4 mb - 0.00 in0.0 mm 0.20 in5.1 mm
02:00 PM 49.1°F9.5°C 46.9°F8.3°C 92% 2.3 mph WSW3.7 kmh WSW 3.5 mph5.6 kmh 30.26 in1024.7 mb - 0.00 in0.0 mm 0.20 in5.1 mm
02:10 PM 49.0°F9.4°C 47.1°F8.4°C 93% 2.3 mph NW3.7 kmh NW 3.5 mph5.6 kmh 30.26 in1024.7 mb - 0.00 in0.0 mm 0.20 in5.1 mm
02:20 PM 48.8°F9.3°C 47.2°F8.4°C 94% 2.3 mph NNW3.7 kmh NNW 5.8 mph9.3 kmh 30.27 in1025.1 mb - 0.00 in0.0 mm 0.20 in5.1 mm
02:30 PM 48.8°F9.3°C 47.1°F8.4°C 94% 1.2 mph ESE1.9 kmh ESE 3.5 mph5.6 kmh 30.27 in1025.1 mb - 0.00 in0.0 mm 0.20 in5.1 mm
02:40 PM 48.9°F9.4°C 46.9°F8.3°C 93% 2.3 mph E3.7 kmh E 3.5 mph5.6 kmh 30.26 in1024.7 mb - 0.00 in0.0 mm 0.20 in5.1 mm
02:50 PM 48.9°F9.4°C 47.3°F8.5°C 94% Calm Calm 2.3 mph3.7 kmh 30.27 in1025.1 mb - 0.00 in0.0 mm 0.20 in5.1 mm
03:00 PM 48.9°F9.4°C 47.0°F8.3°C 93% 2.3 mph E3.7 kmh E 2.3 mph3.7 kmh 30.27 in1025.1 mb - 0.00 in0.0 mm 0.20 in5.1 mm
03:10 PM 49.0°F9.4°C 46.8°F8.2°C 92% 2.3 mph NE3.7 kmh NE 1.2 mph1.9 kmh 30.27 in1025.1 mb - 0.00 in0.0 mm 0.20 in5.1 mm
03:20 PM 49.1°F9.5°C 47.1°F8.4°C 93% 1.2 mph NW1.9 kmh NW 2.3 mph3.7 kmh 30.27 in1025.1 mb - 0.00 in0.0 mm 0.20 in5.1 mm
03:30 PM 49.4°F9.7°C 46.9°F8.3°C 91% 1.2 mph NW1.9 kmh NW 1.2 mph1.9 kmh 30.28 in1025.4 mb - 0.00 in0.0 mm 0.20 in5.1 mm
03:40 PM 49.4°F9.7°C 47.2°F8.4°C 92% 2.3 mph NNE3.7 kmh NNE 2.3 mph3.7 kmh 30.28 in1025.4 mb - 0.00 in0.0 mm 0.20 in5.1 mm
03:50 PM 49.7°F9.8°C 47.2°F8.4°C 91% Calm Calm -- 30.27 in1025.1 mb - 0.00 in0.0 mm 0.20 in5.1 mm
04:00 PM 49.8°F9.9°C 47.0°F8.3°C 90% 2.3 mph E3.7 kmh E 2.3 mph3.7 kmh 30.28 in1025.4 mb - 0.00 in0.0 mm 0.20 in5.1 mm
04:10 PM 49.7°F9.8°C 47.2°F8.4°C 91% 2.3 mph NW3.7 kmh NW 2.3 mph3.7 kmh 30.29 in1025.7 mb - 0.00 in0.0 mm 0.20 in5.1 mm
04:20 PM 49.8°F9.9°C 47.0°F8.3°C 90% 3.5 mph NE5.6 kmh NE 2.3 mph3.7 kmh 30.29 in1025.7 mb - 0.00 in0.0 mm 0.20 in5.1 mm
04:30 PM 50.6°F10.3°C 47.7°F8.7°C 90% 1.2 mph N1.9 kmh N 2.3 mph3.7 kmh 30.29 in1025.7 mb - 0.00 in0.0 mm 0.20 in5.1 mm
04:40 PM 50.8°F10.4°C 47.0°F8.3°C 87% 2.3 mph E3.7 kmh E 2.3 mph3.7 kmh 30.29 in1025.7 mb - 0.00 in0.0 mm 0.20 in5.1 mm
04:50 PM 50.7°F10.4°C 47.3°F8.5°C 88% 2.3 mph W3.7 kmh W 3.5 mph5.6 kmh 30.29 in1025.7 mb - 0.00 in0.0 mm 0.20 in5.1 mm
05:00 PM 50.7°F10.4°C 47.0°F8.3°C 87% 2.3 mph W3.7 kmh W 2.3 mph3.7 kmh 30.30 in1026.1 mb - 0.00 in0.0 mm 0.20 in5.1 mm
05:10 PM 51.1°F10.6°C 47.3°F8.5°C 87% 1.2 mph N1.9 kmh N 1.2 mph1.9 kmh 30.30 in1026.1 mb - 0.00 in0.0 mm 0.20 in5.1 mm
05:20 PM 51.4°F10.8°C 47.0°F8.3°C 85% 2.3 mph SW3.7 kmh SW 2.3 mph3.7 kmh 30.30 in1026.1 mb - 0.00 in0.0 mm 0.20 in5.1 mm
05:30 PM 51.3°F10.7°C 47.0°F8.3°C 85% 2.3 mph ESE3.7 kmh ESE 5.8 mph9.3 kmh 30.31 in1026.4 mb - 0.00 in0.0 mm 0.20 in5.1 mm
05:40 PM 51.5°F10.8°C 46.9°F8.3°C 84% 2.3 mph ESE3.7 kmh ESE 8.1 mph13.0 kmh 30.31 in1026.4 mb - 0.00 in0.0 mm 0.20 in5.1 mm
05:50 PM 51.3°F10.7°C 46.3°F7.9°C 83% 3.5 mph NE5.6 kmh NE 8.1 mph13.0 kmh 30.31 in1026.4 mb - 0.00 in0.0 mm 0.20 in5.1 mm
06:00 PM 51.4°F10.8°C 46.4°F8.0°C 83% 3.5 mph NW5.6 kmh NW 2.3 mph3.7 kmh 30.31 in1026.4 mb - 0.00 in0.0 mm 0.20 in5.1 mm
06:10 PM 51.6°F10.9°C 46.0°F7.8°C 81% 3.5 mph ENE5.6 kmh ENE 3.5 mph5.6 kmh 30.32 in1026.8 mb - 0.00 in0.0 mm 0.20 in5.1 mm
06:20 PM 51.6°F10.9°C 46.3°F7.9°C 82% 2.3 mph SSE3.7 kmh SSE 2.3 mph3.7 kmh 30.32 in1026.8 mb - 0.00 in0.0 mm 0.20 in5.1 mm
06:30 PM 51.6°F10.9°C 46.0°F7.8°C 81% 3.5 mph SW5.6 kmh SW 2.3 mph3.7 kmh 30.32 in1026.8 mb - 0.00 in0.0 mm 0.20 in5.1 mm
06:40 PM 51.6°F10.9°C 45.9°F7.7°C 81% 1.2 mph WNW1.9 kmh WNW 3.5 mph5.6 kmh 30.33 in1027.1 mb - 0.00 in0.0 mm 0.20 in5.1 mm
06:50 PM 51.5°F10.8°C 45.9°F7.7°C 81% 1.2 mph N1.9 kmh N 5.8 mph9.3 kmh 30.34 in1027.4 mb - 0.00 in0.0 mm 0.20 in5.1 mm
07:00 PM 51.1°F10.6°C 46.2°F7.9°C 83% 1.2 mph NNE1.9 kmh NNE 1.2 mph1.9 kmh 30.34 in1027.4 mb - 0.00 in0.0 mm 0.20 in5.1 mm
07:10 PM 50.4°F10.2°C 46.0°F7.8°C 85% 1.2 mph SE1.9 kmh SE 2.3 mph3.7 kmh 30.34 in1027.4 mb - 0.00 in0.0 mm 0.20 in5.1 mm
07:20 PM 49.8°F9.9°C 45.8°F7.7°C 86% Calm Calm 1.2 mph1.9 kmh 30.34 in1027.4 mb - 0.00 in0.0 mm 0.20 in5.1 mm
07:30 PM 49.5°F9.7°C 45.5°F7.5°C 86% 2.3 mph N3.7 kmh N 2.3 mph3.7 kmh 30.34 in1027.4 mb - 0.00 in0.0 mm 0.20 in5.1 mm
07:40 PM 49.0°F9.4°C 45.3°F7.4°C 87% 2.3 mph NE3.7 kmh NE 3.5 mph5.6 kmh 30.35 in1027.8 mb - 0.00 in0.0 mm 0.20 in5.1 mm
07:50 PM 48.7°F9.3°C 45.0°F7.2°C 87% 2.3 mph SE3.7 kmh SE 2.3 mph3.7 kmh 30.35 in1027.8 mb - 0.00 in0.0 mm 0.20 in5.1 mm
08:00 PM 48.3°F9.1°C 44.9°F7.2°C 88% Calm Calm -- 30.35 in1027.8 mb - 0.00 in0.0 mm 0.20 in5.1 mm
08:10 PM 47.6°F8.7°C 44.8°F7.1°C 90% Calm Calm 2.3 mph3.7 kmh 30.36 in1028.1 mb - 0.00 in0.0 mm 0.20 in5.1 mm
08:20 PM 46.8°F8.2°C 44.3°F6.8°C 91% 2.3 mph W3.7 kmh W 2.3 mph3.7 kmh 30.37 in1028.4 mb - 0.00 in0.0 mm 0.20 in5.1 mm
08:30 PM 47.5°F8.6°C 42.6°F5.9°C 83% 2.3 mph NW3.7 kmh NW 5.8 mph9.3 kmh 30.37 in1028.4 mb - 0.00 in0.0 mm 0.20 in5.1 mm
08:40 PM 47.5°F8.6°C 41.9°F5.5°C 81% 3.5 mph SW5.6 kmh SW 2.3 mph3.7 kmh 30.38 in1028.8 mb - 0.00 in0.0 mm 0.20 in5.1 mm
08:50 PM 46.8°F8.2°C 42.3°F5.7°C 84% 2.3 mph NW3.7 kmh NW 2.3 mph3.7 kmh 30.39 in1029.1 mb - 0.00 in0.0 mm 0.20 in5.1 mm
09:00 PM 46.1°F7.8°C 42.4°F5.8°C 87% 1.2 mph NW1.9 kmh NW 1.2 mph1.9 kmh 30.39 in1029.1 mb - 0.00 in0.0 mm 0.20 in5.1 mm
09:10 PM 45.0°F7.2°C 41.6°F5.3°C 88% Calm Calm 1.2 mph1.9 kmh 30.40 in1029.5 mb - 0.00 in0.0 mm 0.20 in5.1 mm
09:20 PM 44.3°F6.8°C 41.6°F5.3°C 90% Calm Calm -- 30.40 in1029.5 mb - 0.00 in0.0 mm 0.20 in5.1 mm
09:30 PM 43.3°F6.3°C 41.2°F5.1°C 92% Calm Calm -- 30.40 in1029.5 mb - 0.00 in0.0 mm 0.20 in5.1 mm
09:40 PM 42.5°F5.8°C 40.7°F4.8°C 93% Calm Calm -- 30.40 in1029.5 mb - 0.00 in0.0 mm 0.20 in5.1 mm
09:50 PM 41.9°F5.5°C 40.9°F4.9°C 96% Calm Calm -- 30.41 in1029.8 mb - 0.00 in0.0 mm 0.20 in5.1 mm
10:00 PM 41.7°F5.4°C 40.6°F4.8°C 96% 1.2 mph NW1.9 kmh NW 1.2 mph1.9 kmh 30.40 in1029.5 mb - 0.00 in0.0 mm 0.20 in5.1 mm
10:10 PM 41.5°F5.3°C 40.4°F4.7°C 96% 1.2 mph NW1.9 kmh NW 1.2 mph1.9 kmh 30.41 in1029.8 mb - 0.00 in0.0 mm 0.20 in5.1 mm
10:20 PM 41.5°F5.3°C 40.4°F4.7°C 96% 2.3 mph NW3.7 kmh NW 2.3 mph3.7 kmh 30.40 in1029.5 mb - 0.00 in0.0 mm 0.20 in5.1 mm
10:30 PM 41.0°F5.0°C 40.0°F4.4°C 96% Calm Calm 1.2 mph1.9 kmh 30.40 in1029.5 mb - 0.00 in0.0 mm 0.20 in5.1 mm
10:40 PM 40.4°F4.7°C 39.4°F4.1°C 96% Calm Calm -- 30.40 in1029.5 mb - 0.00 in0.0 mm 0.20 in5.1 mm
10:50 PM 39.8°F4.3°C 38.8°F3.8°C 96% Calm Calm -- 30.40 in1029.5 mb - 0.00 in0.0 mm 0.20 in5.1 mm
11:00 PM 39.5°F4.2°C 38.4°F3.6°C 96% Calm Calm -- 30.40 in1029.5 mb - 0.00 in0.0 mm 0.20 in5.1 mm
11:10 PM 39.2°F4.0°C 38.2°F3.4°C 96% Calm Calm -- 30.40 in1029.5 mb - 0.00 in0.0 mm 0.20 in5.1 mm
11:20 PM 38.8°F3.8°C 37.8°F3.2°C 96% Calm Calm -- 30.39 in1029.1 mb - 0.00 in0.0 mm 0.20 in5.1 mm
11:30 PM 38.0°F3.3°C 37.0°F2.8°C 96% Calm Calm -- 30.39 in1029.1 mb - 0.00 in0.0 mm 0.20 in5.1 mm
11:40 PM 37.7°F3.2°C 36.4°F2.4°C 95% Calm Calm -- 30.39 in1029.1 mb - 0.00 in0.0 mm 0.20 in5.1 mm
11:50 PM 37.3°F2.9°C 36.0°F2.2°C 95% Calm Calm -- 30.38 in1028.8 mb - 0.00 in0.0 mm 0.20 in5.1 mm